28.3°F
Current conditions from King Hill
Updated every 5 minutes
 
  Tuesday December 6, 2016

Observations for Westford

Westford

44° 37' 39"N, 73° 02' 29"W, Elevation 850 ft.
Eastern Time

Hourly observations for the last 72 hours

Date Time Temperature (F) Humi-
dity

(%)
Wind
(mph)
Pressure Rain (in) Sun
(W/m2)
UV ET
(in)
Air Dew 6 Hour 1 Hr 3 Hr 6 Hr Day
Alt
(in)
Sea
Level

(mb)
Max Min
29 15:00 41.1 39.8 95 Calm 29.85 1010.8 0.10 0 0.0 0.002
29 14:00 40.6 39.3 95 S 0 G 8 29.86 1011.3 0.02 0.10 12 0.0 0.002
29 13:00 40.2 38.9 40.2 36.8 95 S 2 G 8 29.86 1011.2 0.02 0.08 0.08 14 0.0 0.002
29 12:00 39.8 38.5 95 SSE 2 G 9 29.87 1011.6 0.02 0.08 16 0.0 0.002
29 11:00 39.5 37.9 94 SSE 2 G 9 29.89 1012.3 0.06 16 0.0 0.002
29 10:00 39.6 38.3 95 ESE 0 G 10 29.91 1013.0 0.06 0.06 9 0.0 0.002
29 09:00 39.1 37.2 93 E 0 G 9 29.94 1014.0 0.03 0.06 5 0.0 0.002
29 08:00 37.5 35.4 92 SSE 2 G 18 29.98 1015.2 0.03 0.03 0 0.0 0.002
29 07:00 38.7 32.4 39.1 26.6 78 S 0 G 9 29.99 1015.6 0.00 0 0.0 0.002
29 06:00 37.1 30.2 76 S 3 G 10 29.99 1015.6 0.00 0 0.0 0.001
29 05:00 35.7 29.5 78 SSE 1 G 10 30.00 1015.8 0.00 0 0.0 0.000
29 04:00 27.8 26.0 93 Calm 30.04 1017.2 0.00 0 0.0 0.000
29 03:00 27.2 25.2 92 Calm 30.06 1017.9 0.00 0 0.0 0.000
29 02:00 27.1 24.3 89 Calm 30.07 1018.3 0.00 0 0.0 0.000
29 01:00 26.6 24.3 26.6 21.6 91 Calm 30.08 1018.5 0.00 0 0.0 0.000
29 00:00 25.1 23.9 95 Calm 30.08 1018.8 0.00 0 0.0 0.000
28 23:00 22.3 21.1 95 Calm 30.11 1019.6 0.00 0 0.0 0.014
28 22:00 22.1 20.6 94 Calm 30.11 1019.7 0.00 0 0.0 0.014
28 21:00 22.9 21.4 94 Calm 30.13 1020.4 0.00 0 0.0 0.014
28 20:00 24.5 22.8 93 Calm 30.13 1020.2 0.00 0 0.0 0.014
28 19:00 25.8 23.5 34.6 25.5 91 Calm 30.12 1019.9 0.00 0 0.0 0.014
28 18:00 26.8 24.0 89 Calm 30.13 1020.3 0.00 0 0.0 0.014
28 17:00 28.0 24.6 87 Calm 30.11 1019.8 0.00 0 0.0 0.014
28 16:00 30.8 25.7 81 Calm 30.11 1019.5 0.00 11 0.0 0.014
28 15:00 33.5 26.1 74 Calm 30.11 1019.5 0.00 40 0.0 0.014
28 14:00 33.6 26.2 74 Calm 30.12 1020.1 0.00 179 0.0 0.012
28 13:00 33.6 25.9 34.4 27.8 73 Calm 30.13 1020.2 0.00 290 0.0 0.009
28 12:00 31.6 25.5 78 SW 0 G 5 30.15 1020.9 0.00 183 0.0 0.005
28 11:00 30.4 25.0 80 Calm 30.16 1021.2 0.00 98 0.0 0.003
28 10:00 29.7 25.2 83 Calm 30.17 1021.6 0.00 90 0.0 0.002
28 09:00 28.7 24.5 84 Calm 30.16 1021.3 0.00 54 0.0 0.001
28 08:00 28.3 24.4 85 Calm 30.15 1020.9 0.00 23 0.0 0.000
28 07:00 27.9 23.7 28.8 27.8 84 Calm 30.14 1020.6 0.00 0 0.0 0.000
28 06:00 28.1 24.2 85 WNW 1 G 7 30.13 1020.4 0.00 0 0.0 0.000
28 05:00 28.4 24.5 85 WNW 1 G 7 30.11 1019.5 0.00 0 0.0 0.000
28 04:00 28.4 24.5 85 Calm 30.08 1018.8 0.00 0 0.0 0.000
28 03:00 28.4 24.5 85 Calm 30.08 1018.5 0.00 0 0.0 0.000
28 02:00 28.6 24.1 83 NW 0 G 6 30.08 1018.8 0.00 0 0.0 0.000
28 01:00 28.8 24.0 30.2 28.7 82 NW 0 G 7 30.08 1018.7 0.00 0 0.0 0.000
28 00:00 28.7 23.3 80 NNW 0 G 6 30.08 1018.6 0.00 0 0.0 0.000
27 23:00 29.0 23.6 80 W 2 G 10 30.08 1018.6 0.00 0 0.0 0.009
27 22:00 29.1 24.6 83 WNW 4 G 12 30.06 1018.1 0.00 0 0.0 0.009
27 21:00 29.3 25.1 84 NW 0 G 7 30.06 1017.8 0.00 0 0.0 0.009
27 20:00 29.8 25.8 85 NNW 2 G 7 30.06 1017.8 0.00 0 0.0 0.009
27 19:00 30.2 26.5 33.3 30.1 86 NW 2 G 10 30.06 1017.8 0.00 0 0.0 0.009
27 18:00 30.4 25.9 83 NW 2 G 16 30.05 1017.6 0.00 0 0.0 0.009
27 17:00 31.2 26.6 83 NW 4 G 9 30.03 1017.1 0.00 0 0.0 0.009
27 16:00 31.8 27.2 83 WNW 1 G 7 30.02 1016.8 0.00 5 0.0 0.009
27 15:00 32.9 28.0 82 NW 3 G 7 30.02 1016.5 0.00 49 0.0 0.008
27 14:00 33.2 29.8 87 Calm 30.01 1016.3 0.00 79 0.0 0.007
27 13:00 33.0 29.3 33.3 27.7 86 NNW 0 G 7 30.00 1016.1 0.00 121 0.0 0.006
27 12:00 32.8 29.4 87 Calm 30.02 1016.6 0.00 53 0.0 0.005
27 11:00 32.8 29.4 87 Calm 30.03 1017.1 0.00 90 0.0 0.004
27 10:00 32.9 28.9 85 Calm 30.04 1017.4 0.00 132 0.0 0.003
27 09:00 31.9 29.3 90 Calm 30.04 1017.4 0.00 128 0.0 0.001
27 08:00 28.0 26.5 94 Calm 30.05 1017.5 0.00 19 0.0 0.000
27 07:00 28.9 27.1 31.4 28.8 93 Calm 30.04 1017.2 0.00 0 0.0 0.000
27 06:00 29.1 27.3 93 Calm 30.04 1017.2 0.00 0 0.0 0.000
27 05:00 30.7 27.8 89 Calm 30.04 1017.2 0.00 0 0.0 0.000
27 04:00 30.9 29.4 94 N 0 G 6 30.03 1017.1 0.00 0 0.0 0.000
27 03:00 30.9 29.4 94 Calm 30.03 1017.1 0.00 0 0.0 0.000
27 02:00 31.1 29.6 94 Calm 30.03 1017.1 0.00 0 0.0 0.000
27 01:00 31.3 30.0 32.2 31.1 95 Calm 30.03 1017.0 0.00 0 0.0 0.000
27 00:00 31.3 30.5 97 Calm 30.03 1017.1 0.06 0 0.0 0.000
26 23:00 31.4 30.6 97 Calm 30.04 1017.2 0.06 0 0.0 0.005
26 22:00 31.4 30.6 97 Calm 30.04 1017.4 0.06 0 0.0 0.005
26 21:00 31.7 30.9 97 Calm 30.06 1017.9 0.06 0 0.0 0.005
26 20:00 32.0 31.5 98 Calm 30.06 1017.9 0.06 0 0.0 0.005
26 19:00 32.2 31.7 38.1 32.2 98 Calm 30.06 1017.8 0.03 0.06 0 0.0 0.005
26 18:00 32.6 32.1 98 Calm 30.06 1017.8 0.06 0 0.0 0.005
26 17:00 33.5 33.0 98 NE 2 G 7 30.05 1017.8 0.06 0 0.0 0.005
26 16:00 34.6 34.1 98 N 0 G 5 30.04 1017.3 0.01 0.03 0.06 0 0.0 0.005

Data generated by WxSolution Version 1.9.0.1, Build 2016.11.11.


 
 
Current Radar Loop:

Copyright © WestfordWeather.net 2007-2016. All rights reserved.